Time;durP1;ratioP1;P1;durP2;ratioP2;P2;SDS_P1;SDS_P2;PMS_P1;PMS_P2;Temp;Humidity;BMP_temperature;BMP_pressure;BME280_temperature;BME280_humidity;BME280_pressure;Samples;Min_cycle;Max_cycle;Signal;HPM_P1;HPM_P2
2023/06/24 00:02:13;;;;;;;13.18;4.57;;;19.70;99.90;;;;;;4991106;28;20254;-68
2023/06/24 00:04:39;;;;;;;7.22;4.07;;;19.70;99.90;;;;;;4991139;28;20203;-67
2023/06/24 00:07:05;;;;;;;6.72;4.20;;;19.70;99.90;;;;;;4990961;28;20175;-67
2023/06/24 00:09:30;;;;;;;9.30;4.55;;;19.60;99.90;;;;;;4991105;28;20187;-67
2023/06/24 00:12:00;;;;;;;8.98;4.38;;;19.60;99.90;;;;;;4991030;28;20187;-67
2023/06/24 00:14:27;;;;;;;7.00;4.20;;;19.70;99.90;;;;;;4991009;28;20259;-67
2023/06/24 00:16:53;;;;;;;8.85;4.10;;;19.70;99.90;;;;;;4991040;28;20215;-68
2023/06/24 00:19:20;;;;;;;5.65;3.78;;;19.60;99.90;;;;;;4994342;28;20207;-67
2023/06/24 00:21:51;;;;;;;8.63;4.22;;;19.50;99.90;;;;;;4994460;28;20183;-68
2023/06/24 00:24:20;;;;;;;6.28;4.20;;;19.60;99.90;;;;;;4994538;28;20219;-67
2023/06/24 00:26:48;;;;;;;8.57;4.10;;;19.50;99.90;;;;;;4994401;28;20199;-67
2023/06/24 00:29:14;;;;;;;8.60;4.45;;;19.50;99.90;;;;;;4994479;28;20225;-68
2023/06/24 00:31:40;;;;;;;6.45;3.95;;;19.50;99.90;;;;;;4994367;28;20175;-66
2023/06/24 00:34:07;;;;;;;5.35;3.60;;;19.50;99.90;;;;;;4994307;28;20511;-68
2023/06/24 00:36:32;;;;;;;9.00;3.88;;;19.50;99.90;;;;;;4994244;28;20694;-68
2023/06/24 00:39:03;;;;;;;9.68;4.00;;;19.50;99.90;;;;;;4994219;28;20658;-68
2023/06/24 00:41:32;;;;;;;5.28;3.83;;;19.50;99.90;;;;;;4994322;28;20179;-68
2023/06/24 00:43:58;;;;;;;8.98;3.88;;;19.50;99.90;;;;;;4994064;28;20210;-67
2023/06/24 00:46:25;;;;;;;9.13;4.50;;;19.50;99.90;;;;;;4993935;28;20665;-67
2023/06/24 00:48:55;;;;;;;8.02;4.60;;;19.50;99.90;;;;;;4993923;28;20214;-67
2023/06/24 00:51:21;;;;;;;10.18;4.38;;;19.50;99.90;;;;;;4993983;28;20171;-67
2023/06/24 00:53:49;;;;;;;7.85;4.07;;;19.50;99.90;;;;;;4993781;28;20246;-66
2023/06/24 00:56:18;;;;;;;11.65;4.00;;;19.50;99.90;;;;;;4993936;28;20271;-68
2023/06/24 00:58:44;;;;;;;8.10;4.10;;;19.40;99.90;;;;;;4993898;28;20183;-67
2023/06/24 01:01:10;;;;;;;7.30;4.05;;;19.40;99.90;;;;;;4976401;28;20646;-67
2023/06/24 01:03:37;;;;;;;6.10;4.07;;;19.50;99.90;;;;;;4993692;28;20285;-67
2023/06/24 01:06:03;;;;;;;8.75;3.90;;;19.50;99.90;;;;;;4993692;28;20642;-67
2023/06/24 01:08:28;;;;;;;9.35;4.30;;;19.50;99.90;;;;;;4993711;28;20658;-67
2023/06/24 01:10:54;;;;;;;6.68;3.97;;;19.50;99.90;;;;;;4993636;28;20171;-67
2023/06/24 01:13:20;;;;;;;7.20;3.88;;;19.50;99.90;;;;;;4993589;28;20187;-67
2023/06/24 01:15:46;;;;;;;6.68;4.03;;;19.50;99.90;;;;;;4993459;28;20171;-67
2023/06/24 01:18:48;;;;;;;5.78;4.10;;;19.50;99.90;;;;;;4993484;28;20223;-68
2023/06/24 01:21:29;;;;;;;7.65;4.20;;;19.50;99.90;;;;;;4955353;28;20187;-67
2023/06/24 01:24:13;;;;;;;8.30;4.00;;;19.50;99.90;;;;;;4993152;28;20215;-67
2023/06/24 01:26:50;;;;;;;10.15;4.53;;;19.40;99.90;;;;;;4993411;28;20221;-67
2023/06/24 01:29:34;;;;;;;6.60;4.00;;;19.50;99.90;;;;;;4992497;28;20175;-67
2023/06/24 01:32:06;;;;;;;9.73;4.38;;;19.40;99.90;;;;;;4993351;28;20163;-68
2023/06/24 01:34:41;;;;;;;8.93;4.13;;;19.40;99.90;;;;;;4993325;28;20181;-68
2023/06/24 01:37:17;;;;;;;11.45;4.45;;;19.50;99.90;;;;;;4993212;28;20232;-67
2023/06/24 01:40:10;;;;;;;8.38;4.20;;;19.50;99.90;;;;;;4993165;28;20449;-68
2023/06/24 01:42:39;;;;;;;9.93;4.53;;;19.40;99.90;;;;;;4993080;28;20246;-68
2023/06/24 01:45:12;;;;;;;11.02;4.60;;;19.40;99.90;;;;;;4992981;28;20274;-68
2023/06/24 01:47:40;;;;;;;9.27;4.38;;;19.40;99.90;;;;;;4993052;28;20259;-67
2023/06/24 01:50:09;;;;;;;10.07;4.38;;;19.30;99.90;;;;;;4993210;28;20179;-67
2023/06/24 01:52:35;;;;;;;8.85;4.25;;;19.30;99.90;;;;;;4993056;28;20170;-69
2023/06/24 01:55:04;;;;;;;12.23;4.75;;;19.30;99.90;;;;;;4992997;28;20646;-69
2023/06/24 01:57:32;;;;;;;5.88;4.30;;;19.30;99.90;;;;;;4992701;28;20172;-69
2023/06/24 02:00:00;;;;;;;8.57;4.55;;;19.40;99.90;;;;;;4986586;28;20226;-68
2023/06/24 02:02:28;;;;;;;8.93;4.57;;;19.30;99.90;;;;;;4986758;28;20245;-68
2023/06/24 02:04:55;;;;;;;8.35;4.45;;;19.40;99.90;;;;;;4992255;28;20217;-69
2023/06/24 02:07:22;;;;;;;7.88;4.72;;;19.40;99.90;;;;;;4973416;28;20178;-67
2023/06/24 02:09:49;;;;;;;7.53;4.03;;;19.40;99.90;;;;;;4980906;28;20180;-65
2023/06/24 02:12:15;;;;;;;7.63;4.38;;;19.30;99.90;;;;;;4976947;28;20160;-68
2023/06/24 02:14:41;;;;;;;7.55;4.78;;;19.40;99.90;;;;;;4973881;28;20175;-68
2023/06/24 02:17:11;;;;;;;9.25;4.88;;;19.40;99.90;;;;;;4973435;28;20226;-68
2023/06/24 02:19:38;;;;;;;9.55;4.78;;;19.40;99.90;;;;;;4972005;28;20524;-68
2023/06/24 02:22:09;;;;;;;9.68;4.72;;;19.40;99.90;;;;;;4973247;28;20171;-68
2023/06/24 02:24:36;;;;;;;10.40;5.05;;;19.40;99.90;;;;;;4972926;28;20219;-68
2023/06/24 02:27:03;;;;;;;10.30;4.68;;;19.40;99.90;;;;;;4973302;28;20266;-67
2023/06/24 02:29:29;;;;;;;11.90;4.93;;;19.30;99.90;;;;;;4972957;28;20211;-68
2023/06/24 02:31:55;;;;;;;8.35;4.57;;;19.30;99.90;;;;;;4972546;28;20643;-67
2023/06/24 02:34:23;;;;;;;10.02;4.90;;;19.30;99.90;;;;;;4972704;28;20179;-67
2023/06/24 02:36:49;;;;;;;11.25;4.95;;;19.30;99.90;;;;;;4972567;28;20172;-67
2023/06/24 02:39:15;;;;;;;7.40;4.40;;;19.40;99.90;;;;;;4972551;28;20180;-67
2023/06/24 02:41:41;;;;;;;8.45;4.78;;;19.30;99.90;;;;;;4972350;28;20751;-67
2023/06/24 02:44:06;;;;;;;9.32;4.75;;;19.30;99.90;;;;;;4972393;28;20226;-68
2023/06/24 02:46:35;;;;;;;8.20;4.72;;;19.30;99.90;;;;;;4955132;28;20267;-68
2023/06/24 02:49:01;;;;;;;10.13;4.80;;;19.30;99.90;;;;;;4972405;28;20315;-68
2023/06/24 02:51:27;;;;;;;11.15;5.13;;;19.30;99.90;;;;;;4972304;28;20203;-68
2023/06/24 02:53:54;;;;;;;11.88;4.82;;;19.30;99.90;;;;;;4972316;28;20200;-67
2023/06/24 02:56:20;;;;;;;9.55;4.70;;;19.30;99.90;;;;;;4972644;28;20235;-68
2023/06/24 02:58:47;;;;;;;6.85;4.45;;;19.30;99.90;;;;;;4972343;28;20259;-68
2023/06/24 03:01:14;;;;;;;11.77;4.88;;;19.30;99.90;;;;;;4972400;28;20176;-68
2023/06/24 03:03:41;;;;;;;10.18;4.97;;;19.30;99.90;;;;;;4972142;28;20222;-68
2023/06/24 03:06:07;;;;;;;10.95;4.57;;;19.30;99.90;;;;;;4972146;28;20164;-67
2023/06/24 03:08:33;;;;;;;9.88;5.25;;;19.30;99.90;;;;;;4972332;28;20263;-67
2023/06/24 03:10:59;;;;;;;10.73;4.82;;;19.30;99.90;;;;;;4972085;28;20183;-68
2023/06/24 03:13:25;;;;;;;10.15;4.68;;;19.30;99.90;;;;;;4972190;28;20176;-68
2023/06/24 03:15:51;;;;;;;10.93;5.18;;;19.30;99.90;;;;;;4972034;28;20176;-68
2023/06/24 03:18:17;;;;;;;7.88;4.82;;;19.30;99.90;;;;;;4971869;28;20699;-68
2023/06/24 03:20:43;;;;;;;6.22;5.20;;;19.30;99.90;;;;;;4970776;28;20233;-68
2023/06/24 03:23:09;;;;;;;8.10;4.68;;;19.30;99.90;;;;;;4971877;28;20750;-68
2023/06/24 03:25:35;;;;;;;7.05;4.72;;;19.30;99.90;;;;;;4972060;28;20171;-68
2023/06/24 03:28:03;;;;;;;7.25;4.80;;;19.30;99.90;;;;;;4954789;28;20543;-67
2023/06/24 03:30:29;;;;;;;11.32;5.32;;;19.30;99.90;;;;;;4972113;28;20228;-67
2023/06/24 03:32:55;;;;;;;11.48;5.53;;;19.30;99.90;;;;;;4971988;28;20678;-68
2023/06/24 03:35:22;;;;;;;8.82;5.03;;;19.30;99.90;;;;;;4971958;28;20533;-67
2023/06/24 03:37:48;;;;;;;9.52;5.07;;;19.30;99.90;;;;;;4970636;28;20184;-68
2023/06/24 03:40:13;;;;;;;8.85;4.95;;;19.20;99.90;;;;;;4971953;28;20190;-68
2023/06/24 03:42:39;;;;;;;9.23;5.07;;;19.20;99.90;;;;;;4971797;28;20644;-68
2023/06/24 03:45:05;;;;;;;12.48;5.03;;;19.10;99.90;;;;;;4971965;28;20627;-68
2023/06/24 03:47:30;;;;;;;9.50;4.93;;;19.10;99.90;;;;;;4971818;28;20232;-68
2023/06/24 03:49:56;;;;;;;8.65;4.90;;;19.10;99.90;;;;;;4971791;28;20274;-67
2023/06/24 03:52:22;;;;;;;11.57;5.13;;;19.10;99.90;;;;;;4972352;28;20176;-68
2023/06/24 03:54:47;;;;;;;8.15;5.30;;;19.10;99.90;;;;;;4975639;28;20172;-67
2023/06/24 03:57:13;;;;;;;8.57;4.95;;;19.20;99.90;;;;;;4975710;28;20302;-68
2023/06/24 03:59:39;;;;;;;11.15;5.70;;;19.20;99.90;;;;;;4975570;28;20184;-69
2023/06/24 04:02:08;;;;;;;9.98;5.15;;;19.20;99.90;;;;;;4975633;28;20184;-68
2023/06/24 04:04:35;;;;;;;8.70;4.82;;;20.70;99.90;;;;;;4975184;28;20274;-67
2023/06/24 04:07:00;;;;;;;9.77;4.95;;;19.20;99.90;;;;;;4979081;28;20713;-67
2023/06/24 04:09:26;;;;;;;9.65;5.18;;;19.10;99.90;;;;;;4992183;28;20171;-68
2023/06/24 04:11:52;;;;;;;7.75;4.80;;;19.20;99.90;;;;;;4973281;28;20164;-68
2023/06/24 04:14:17;;;;;;;11.07;4.78;;;19.20;99.90;;;;;;4975245;28;20476;-67
2023/06/24 04:16:43;;;;;;;7.70;5.07;;;19.20;99.90;;;;;;4975044;28;20588;-68
2023/06/24 04:19:08;;;;;;;9.15;5.40;;;19.20;99.90;;;;;;4975235;28;20218;-67
2023/06/24 04:21:34;;;;;;;9.32;5.18;;;19.20;99.90;;;;;;4975147;28;20176;-67
2023/06/24 04:24:00;;;;;;;9.48;5.13;;;19.30;99.90;;;;;;4957495;28;20212;-68
2023/06/24 04:26:25;;;;;;;9.35;5.18;;;19.30;99.90;;;;;;4975072;28;20180;-67
2023/06/24 04:28:51;;;;;;;10.20;5.40;;;19.30;99.90;;;;;;4974991;28;20176;-67
2023/06/24 04:31:17;;;;;;;10.90;5.50;;;19.30;99.90;;;;;;4975035;28;20172;-67
2023/06/24 04:33:42;;;;;;;10.75;5.32;;;19.30;99.90;;;;;;4975014;28;20685;-67
2023/06/24 04:36:08;;;;;;;13.52;5.50;;;19.30;99.90;;;;;;4975023;28;20535;-68
2023/06/24 04:38:33;;;;;;;9.98;5.03;;;19.40;99.90;;;;;;4974825;28;20602;-68
2023/06/24 04:40:59;;;;;;;9.82;5.82;;;19.40;99.90;;;;;;4974809;28;20175;-68
2023/06/24 04:43:27;;;;;;;8.13;5.32;;;19.40;99.90;;;;;;4974731;28;20679;-68
2023/06/24 04:45:54;;;;;;;8.32;4.85;;;19.40;99.90;;;;;;4957692;28;20231;-68
2023/06/24 04:48:20;;;;;;;12.93;4.90;;;19.30;99.90;;;;;;4974770;28;20655;-68
2023/06/24 04:50:46;;;;;;;8.30;4.97;;;19.40;99.90;;;;;;4976405;28;20179;-67
2023/06/24 04:53:12;;;;;;;11.25;5.25;;;19.40;99.90;;;;;;4981652;28;20240;-68
2023/06/24 04:55:38;;;;;;;10.45;5.35;;;19.40;99.90;;;;;;4975920;28;20172;-67
2023/06/24 04:58:04;;;;;;;7.32;4.93;;;19.40;99.90;;;;;;4974957;28;20259;-67
2023/06/24 05:00:29;;;;;;;12.20;5.07;;;19.40;99.90;;;;;;4974736;28;20191;-67
2023/06/24 05:02:55;;;;;;;8.30;5.03;;;19.40;99.90;;;;;;4974292;28;20638;-67
2023/06/24 05:05:20;;;;;;;8.68;4.63;;;19.50;99.90;;;;;;4973149;28;20234;-67
2023/06/24 05:07:46;;;;;;;8.52;4.70;;;19.50;99.90;;;;;;4974355;28;20184;-67
2023/06/24 05:10:12;;;;;;;9.38;4.97;;;19.50;99.90;;;;;;4974350;28;20274;-66
2023/06/24 05:12:37;;;;;;;10.25;5.10;;;19.40;99.90;;;;;;4974235;28;20180;-67
2023/06/24 05:15:03;;;;;;;8.60;4.85;;;19.40;99.90;;;;;;4974079;28;20701;-67
2023/06/24 05:17:29;;;;;;;8.02;5.13;;;19.50;99.90;;;;;;4973737;28;20286;-67
2023/06/24 05:19:54;;;;;;;7.53;4.82;;;19.50;99.90;;;;;;4973917;28;20180;-67
2023/06/24 05:22:20;;;;;;;8.15;4.90;;;19.50;99.90;;;;;;4974162;28;20179;-68
2023/06/24 05:24:46;;;;;;;9.13;4.88;;;19.40;99.90;;;;;;4973824;28;20720;-68
2023/06/24 05:27:11;;;;;;;14.25;5.70;;;19.80;99.90;;;;;;4973959;28;20180;-68
2023/06/24 05:29:37;;;;;;;14.23;5.68;;;19.70;99.90;;;;;;4973646;28;20258;-68
2023/06/24 05:32:03;;;;;;;11.25;5.50;;;19.60;99.90;;;;;;4973807;28;20180;-67
2023/06/24 05:34:30;;;;;;;11.43;5.63;;;19.70;99.90;;;;;;4973859;28;20180;-67
2023/06/24 05:36:56;;;;;;;10.55;5.40;;;19.70;99.90;;;;;;4973562;28;20215;-67
2023/06/24 05:39:21;;;;;;;7.47;4.95;;;19.70;99.90;;;;;;4973525;28;20208;-67
2023/06/24 05:41:48;;;;;;;9.30;5.05;;;19.30;99.90;;;;;;4973582;28;20198;-67
2023/06/24 05:44:14;;;;;;;10.07;5.07;;;19.70;99.90;;;;;;4973298;28;20224;-68
2023/06/24 05:46:40;;;;;;;8.48;4.93;;;19.70;99.90;;;;;;4973435;28;20190;-68
2023/06/24 05:49:05;;;;;;;8.88;5.25;;;19.80;99.90;;;;;;4973477;28;20635;-68
2023/06/24 05:51:31;;;;;;;11.00;5.00;;;19.90;99.90;;;;;;4973374;28;20311;-68
2023/06/24 05:53:57;;;;;;;10.52;5.75;;;;;;;;;;4973327;28;20223;-68
2023/06/24 05:56:23;;;;;;;9.77;5.40;;;19.70;99.90;;;;;;4973398;28;20175;-68
2023/06/24 05:58:49;;;;;;;6.45;4.80;;;20.00;99.90;;;;;;4973276;28;20180;-67
2023/06/24 06:01:15;;;;;;;14.80;6.03;;;19.90;99.90;;;;;;4973350;28;20180;-68
2023/06/24 06:03:40;;;;;;;8.10;4.70;;;19.90;99.90;;;;;;4973109;28;20230;-67
2023/06/24 06:06:07;;;;;;;7.93;5.22;;;19.90;99.90;;;;;;4973089;28;20603;-67
2023/06/24 06:08:33;;;;;;;9.45;5.43;;;19.90;99.90;;;;;;4973192;28;20184;-67
2023/06/24 06:11:01;;;;;;;6.72;4.85;;;20.00;99.90;;;;;;4973109;28;20180;-67
2023/06/24 06:13:27;;;;;;;14.32;5.75;;;20.00;99.90;;;;;;4980441;28;20222;-67
2023/06/24 06:15:53;;;;;;;10.73;5.25;;;20.00;99.90;;;;;;4975905;28;20215;-67
2023/06/24 06:18:19;;;;;;;9.55;6.00;;;;;;;;;;4971328;28;20310;-68
2023/06/24 06:20:44;;;;;;;10.70;5.60;;;20.10;99.90;;;;;;4972924;28;20179;-66
2023/06/24 06:23:10;;;;;;;9.80;5.80;;;20.10;99.90;;;;;;4972730;28;20207;-67
2023/06/24 06:25:37;;;;;;;8.40;5.97;;;20.20;99.90;;;;;;4972981;28;20180;-67
2023/06/24 06:28:03;;;;;;;11.32;5.68;;;20.20;99.90;;;;;;4972671;28;20252;-67
2023/06/24 06:30:28;;;;;;;10.35;5.22;;;20.30;99.90;;;;;;4955560;28;20595;-68
2023/06/24 06:32:54;;;;;;;8.93;4.82;;;20.40;99.90;;;;;;4972864;28;20210;-68
2023/06/24 06:35:20;;;;;;;8.50;5.05;;;;;;;;;;4973452;28;20175;-67
2023/06/24 06:37:51;;;;;;;9.05;4.80;;;21.00;99.90;;;;;;4973099;28;20172;-69
2023/06/24 06:40:20;;;;;;;14.10;5.20;;;21.00;99.90;;;;;;4972908;28;20183;-68
2023/06/24 06:42:46;;;;;;;10.27;4.78;;;;;;;;;;4972662;28;20175;-68
2023/06/24 06:45:12;;;;;;;9.93;5.00;;;21.20;99.90;;;;;;4973014;28;20214;-69
2023/06/24 06:47:37;;;;;;;8.52;4.57;;;21.20;99.90;;;;;;4972935;28;20251;-68
2023/06/24 06:50:03;;;;;;;8.35;4.78;;;;;;;;;;4973136;28;20316;-67
2023/06/24 06:52:29;;;;;;;6.53;4.32;;;;;;;;;;4972878;28;20602;-68
2023/06/24 06:54:56;;;;;;;9.60;4.65;;;;;;;;;;4972924;28;20176;-67
2023/06/24 06:57:22;;;;;;;8.05;4.25;;;;;;;;;;4972878;28;20631;-67
2023/06/24 06:59:50;;;;;;;6.57;4.28;;;21.80;99.90;;;;;;4972697;28;20179;-67
2023/06/24 07:02:17;;;;;;;7.75;4.03;;;;;;;;;;4972739;28;20200;-68
2023/06/24 07:04:42;;;;;;;8.30;4.28;;;21.70;99.90;;;;;;4972937;28;20211;-68
2023/06/24 07:07:08;;;;;;;10.48;3.95;;;22.10;99.90;;;;;;4972803;28;20705;-68
2023/06/24 07:09:34;;;;;;;7.30;3.80;;;21.80;99.90;;;;;;4972730;28;20168;-69
2023/06/24 07:12:00;;;;;;;7.90;4.10;;;;;;;;;;4972576;28;20171;-68
2023/06/24 07:14:26;;;;;;;5.70;3.30;;;22.00;99.90;;;;;;4972991;28;20174;-68
2023/06/24 07:16:51;;;;;;;7.57;4.05;;;22.00;99.90;;;;;;4972798;28;20714;-67
2023/06/24 07:19:17;;;;;;;7.90;3.90;;;;;;;;;;4972727;28;20271;-68
2023/06/24 07:21:44;;;;;;;8.25;3.78;;;;;;;;;;4972510;28;20266;-68
2023/06/24 07:24:09;;;;;;;5.63;3.70;;;22.00;99.90;;;;;;4972339;28;20218;-66
2023/06/24 07:26:35;;;;;;;6.07;3.47;;;22.10;99.90;;;;;;4972460;28;20172;-66
2023/06/24 07:29:01;;;;;;;6.45;3.30;;;22.20;99.90;;;;;;4975601;28;20172;-67
2023/06/24 07:31:26;;;;;;;9.30;3.92;;;22.20;99.90;;;;;;4976644;28;20669;-67
2023/06/24 07:33:52;;;;;;;7.60;4.13;;;22.20;99.90;;;;;;4978105;28;20179;-66
2023/06/24 07:36:18;;;;;;;5.90;3.83;;;22.10;99.90;;;;;;4965270;28;20186;-66
2023/06/24 07:38:44;;;;;;;10.30;4.00;;;22.10;99.90;;;;;;4978482;28;20206;-68
2023/06/24 07:41:10;;;;;;;11.27;3.70;;;;;;;;;;4977151;28;20168;-68
2023/06/24 07:43:36;;;;;;;8.15;3.92;;;;;;;;;;4976876;28;20208;-67
2023/06/24 07:46:02;;;;;;;6.47;4.30;;;22.20;99.90;;;;;;4976991;28;20655;-68
2023/06/24 07:48:27;;;;;;;7.93;3.92;;;22.30;99.90;;;;;;4976466;28;20191;-68
2023/06/24 07:50:53;;;;;;;6.03;3.63;;;;;;;;;;4976919;28;20168;-67
2023/06/24 07:53:19;;;;;;;7.60;3.78;;;;;;;;;;4976140;28;20541;-67
2023/06/24 07:55:45;;;;;;;12.43;4.00;;;22.50;99.90;;;;;;4975934;28;20288;-67
2023/06/24 07:58:11;;;;;;;7.75;3.70;;;;;;;;;;4976285;28;20273;-67
2023/06/24 08:00:37;;;;;;;9.98;3.90;;;;;;;;;;4976046;28;20203;-68
2023/06/24 08:03:03;;;;;;;6.88;3.70;;;24.30;99.90;;;;;;4975854;28;20184;-67
2023/06/24 08:05:29;;;;;;;8.98;4.10;;;22.60;99.90;;;;;;4976093;28;20183;-67
2023/06/24 08:07:55;;;;;;;6.35;4.35;;;23.00;99.90;;;;;;4975893;28;20690;-67
2023/06/24 08:10:20;;;;;;;6.55;3.65;;;22.80;99.90;;;;;;4975744;28;20176;-67
2023/06/24 08:12:46;;;;;;;8.50;4.15;;;;;;;;;;4975779;28;20164;-66
2023/06/24 08:15:13;;;;;;;7.53;4.20;;;23.10;99.90;;;;;;4975760;28;20182;-67
2023/06/24 08:17:40;;;;;;;7.60;3.60;;;23.40;99.90;;;;;;4975406;28;20266;-67
2023/06/24 08:20:06;;;;;;;11.63;4.18;;;;;;;;;;4981671;28;20187;-68
2023/06/24 08:22:31;;;;;;;8.32;3.53;;;22.90;99.90;;;;;;4996055;28;20190;-67
2023/06/24 08:24:59;;;;;;;6.07;3.75;;;23.10;99.90;;;;;;4978830;28;20210;-68
2023/06/24 08:27:24;;;;;;;13.38;4.05;;;23.10;99.90;;;;;;4997855;28;20179;-68
2023/06/24 08:29:50;;;;;;;9.85;4.15;;;23.40;99.90;;;;;;4998081;28;20592;-67
2023/06/24 08:32:16;;;;;;;6.68;3.63;;;23.30;99.90;;;;;;4996312;28;20176;-68
2023/06/24 08:34:42;;;;;;;6.72;3.92;;;23.40;99.90;;;;;;4996497;28;20190;-67
2023/06/24 08:37:07;;;;;;;7.43;3.97;;;23.20;99.90;;;;;;4996546;28;20211;-68
2023/06/24 08:39:33;;;;;;;8.10;4.07;;;23.20;99.90;;;;;;4995124;28;20171;-67
2023/06/24 08:41:59;;;;;;;9.18;4.00;;;23.20;99.90;;;;;;4995800;28;20592;-68
2023/06/24 08:44:24;;;;;;;11.18;4.68;;;23.30;99.90;;;;;;4996605;28;20226;-66
2023/06/24 08:46:50;;;;;;;7.93;4.07;;;23.30;99.90;;;;;;4994836;28;20177;-68
2023/06/24 08:49:22;;;;;;;9.75;3.95;;;23.40;99.90;;;;;;4994879;28;20181;-67
2023/06/24 08:52:07;;;;;;;7.28;3.63;;;23.70;99.90;;;;;;4994339;28;20669;-67
2023/06/24 08:54:36;;;;;;;7.03;3.65;;;23.50;99.90;;;;;;4995771;28;20171;-68
2023/06/24 08:57:04;;;;;;;7.57;3.22;;;;;;;;;;4994088;28;20230;-68
2023/06/24 08:59:30;;;;;;;6.57;3.55;;;;;;;;;;4993958;28;20650;-67
2023/06/24 09:01:56;;;;;;;7.85;3.75;;;24.40;99.90;;;;;;4994103;28;20183;-67
2023/06/24 09:04:22;;;;;;;8.52;3.60;;;;;;;;;;4994047;28;20211;-68
2023/06/24 09:06:48;;;;;;;5.40;3.20;;;;;;;;;;4994033;28;20194;-68
2023/06/24 09:09:21;;;;;;;5.60;3.17;;;24.30;99.90;;;;;;4993913;28;20187;-68
2023/06/24 09:11:53;;;;;;;7.72;4.13;;;24.00;99.90;;;;;;4994060;28;20170;-67
2023/06/24 09:14:19;;;;;;;7.97;3.72;;;;;;;;;;4993944;28;20591;-67
2023/06/24 09:16:53;;;;;;;7.70;3.90;;;24.30;99.90;;;;;;4993933;28;20211;-67
2023/06/24 09:19:22;;;;;;;9.52;3.72;;;24.30;99.90;;;;;;4993819;28;20175;-67
2023/06/24 09:21:48;;;;;;;11.98;3.78;;;24.20;99.90;;;;;;4993661;28;20168;-68
2023/06/24 09:24:14;;;;;;;7.88;3.78;;;24.50;99.90;;;;;;4993718;28;20226;-67
2023/06/24 09:26:44;;;;;;;8.55;3.75;;;24.20;99.90;;;;;;4993385;28;20178;-68
2023/06/24 09:29:10;;;;;;;11.05;3.75;;;;;;;;;;4993437;28;20175;-68
2023/06/24 09:31:45;;;;;;;7.97;3.92;;;24.40;99.90;;;;;;4993365;28;20168;-67
2023/06/24 09:34:14;;;;;;;8.40;3.65;;;24.90;99.90;;;;;;4993398;28;20261;-67
2023/06/24 09:36:50;;;;;;;11.15;3.78;;;25.70;99.90;;;;;;4993392;28;20175;-68
2023/06/24 09:39:16;;;;;;;7.10;3.85;;;;;;;;;;4993647;28;20178;-67
2023/06/24 09:41:42;;;;;;;9.68;3.80;;;24.90;99.90;;;;;;4993327;28;20163;-67
2023/06/24 09:44:11;;;;;;;7.20;3.45;;;24.70;99.90;;;;;;4993549;28;20222;-67
2023/06/24 09:46:37;;;;;;;8.10;3.72;;;24.50;99.90;;;;;;4993195;28;20250;-67
2023/06/24 09:49:05;;;;;;;5.18;3.35;;;24.70;99.90;;;;;;4993118;28;20185;-67
2023/06/24 09:51:35;;;;;;;8.38;4.00;;;25.30;99.90;;;;;;4992505;28;20179;-67
2023/06/24 09:54:02;;;;;;;5.88;3.72;;;26.10;99.90;;;;;;4993094;28;20221;-68
2023/06/24 09:56:28;;;;;;;8.85;3.47;;;25.90;99.90;;;;;;4992951;28;20206;-67
2023/06/24 09:58:54;;;;;;;6.43;3.30;;;25.80;99.90;;;;;;4992894;28;20191;-68
2023/06/24 10:01:20;;;;;;;10.25;3.40;;;;;;;;;;4975575;28;20175;-67
2023/06/24 10:03:46;;;;;;;6.20;3.72;;;25.70;99.90;;;;;;4992741;28;20266;-67
2023/06/24 10:06:12;;;;;;;6.82;3.60;;;;;;;;;;4992942;28;20583;-67
2023/06/24 10:08:38;;;;;;;6.10;3.28;;;;;;;;;;4992751;28;20262;-67
2023/06/24 10:11:04;;;;;;;5.65;3.30;;;26.20;99.90;;;;;;4992573;28;20178;-67
2023/06/24 10:13:30;;;;;;;7.85;3.17;;;;;;;;;;4992535;28;20503;-67
2023/06/24 10:15:56;;;;;;;6.50;3.47;;;26.60;99.90;;;;;;4992600;28;20203;-68
2023/06/24 10:18:32;;;;;;;6.28;3.22;;;26.70;99.90;;;;;;4992375;28;20314;-67
2023/06/24 10:20:58;;;;;;;6.30;3.10;;;26.50;99.90;;;;;;4992349;28;20186;-68
2023/06/24 10:23:42;;;;;;;4.45;2.97;;;26.50;99.90;;;;;;4982251;28;20234;-67
2023/06/24 10:26:09;;;;;;;6.60;3.28;;;27.00;99.90;;;;;;4995147;28;20178;-68
2023/06/24 10:29:07;;;;;;;7.80;3.33;;;24.80;99.90;;;;;;4982281;28;20662;-67
2023/06/24 10:31:44;;;;;;;6.65;3.17;;;26.60;99.90;;;;;;4973128;28;20172;-67
2023/06/24 10:34:29;;;;;;;5.30;3.03;;;26.50;99.90;;;;;;4972726;28;20180;-67
2023/06/24 10:36:59;;;;;;;5.93;3.08;;;26.90;99.90;;;;;;4972616;28;20247;-68
2023/06/24 10:39:48;;;;;;;7.53;3.30;;;26.70;99.90;;;;;;4972469;28;20255;-68
2023/06/24 10:42:38;;;;;;;6.63;3.00;;;26.60;99.90;;;;;;4972383;28;20187;-67
2023/06/24 10:45:09;;;;;;;6.82;3.15;;;26.50;99.90;;;;;;4972341;28;20298;-68
2023/06/24 10:47:42;;;;;;;4.57;3.13;;;26.80;99.90;;;;;;4972673;28;20318;-67
2023/06/24 10:50:09;;;;;;;5.60;3.08;;;27.10;99.90;;;;;;4972602;28;20179;-67
2023/06/24 10:52:42;;;;;;;4.93;2.83;;;27.90;99.90;;;;;;4972680;28;20172;-68
2023/06/24 10:55:09;;;;;;;4.55;2.75;;;28.20;99.90;;;;;;4972537;28;20678;-67
2023/06/24 10:57:34;;;;;;;7.78;3.72;;;28.00;99.90;;;;;;4972561;28;20574;-68
2023/06/24 11:00:01;;;;;;;6.45;3.72;;;27.70;99.90;;;;;;4972478;28;20172;-68
2023/06/24 11:02:27;;;;;;;9.63;4.22;;;27.50;99.90;;;;;;4972433;28;20172;-69
2023/06/24 11:04:55;;;;;;;8.38;3.90;;;27.40;99.90;;;;;;4972319;28;20753;-68
2023/06/24 11:07:22;;;;;;;8.25;3.63;;;27.60;99.90;;;;;;4972161;28;20247;-66
2023/06/24 11:09:56;;;;;;;6.03;3.83;;;27.60;99.90;;;;;;4972241;28;20176;-67
2023/06/24 11:12:26;;;;;;;5.63;3.85;;;27.70;99.90;;;;;;4972427;28;20207;-69
2023/06/24 11:14:55;;;;;;;7.15;3.75;;;27.30;99.90;;;;;;4972331;28;20179;-67
2023/06/24 11:17:20;;;;;;;10.52;4.25;;;28.10;99.90;;;;;;4972073;28;20223;-67
2023/06/24 11:19:46;;;;;;;8.68;3.60;;;28.20;99.90;;;;;;4972141;28;20184;-68
2023/06/24 11:22:12;;;;;;;5.93;3.58;;;;;;;;;;4972338;28;20239;-69
2023/06/24 11:24:39;;;;;;;8.10;3.78;;;28.90;99.90;;;;;;4972385;28;20266;-68
2023/06/24 11:27:05;;;;;;;9.00;4.00;;;30.10;99.90;;;;;;4972553;28;20183;-68
2023/06/24 11:29:32;;;;;;;9.40;3.67;;;29.80;99.90;;;;;;4972449;28;20183;-68
2023/06/24 11:31:58;;;;;;;8.60;3.88;;;29.10;99.90;;;;;;4972375;28;20208;-67
2023/06/24 11:34:24;;;;;;;7.25;3.60;;;29.30;99.90;;;;;;4972333;28;20210;-67
2023/06/24 11:36:50;;;;;;;8.75;3.25;;;;;;;;;;4972506;28;20179;-67
2023/06/24 11:39:23;;;;;;;4.25;3.38;;;28.20;99.90;;;;;;4972236;28;20179;-67
2023/06/24 11:41:50;;;;;;;3.55;2.63;;;28.80;99.90;;;;;;4972233;28;20172;-68
2023/06/24 11:44:18;;;;;;;5.10;3.53;;;29.90;99.90;;;;;;4971991;28;20212;-67
2023/06/24 11:46:44;;;;;;;6.38;3.63;;;30.40;99.90;;;;;;4972209;28;20199;-68
2023/06/24 11:49:10;;;;;;;8.75;4.10;;;30.50;99.90;;;;;;4971954;28;20655;-68
2023/06/24 11:51:36;;;;;;;8.30;3.35;;;30.80;99.90;;;;;;4971944;28;20164;-68
2023/06/24 11:54:05;;;;;;;6.00;2.83;;;31.10;99.90;;;;;;4972103;28;20202;-68
2023/06/24 11:56:38;;;;;;;6.38;2.90;;;30.90;99.90;;;;;;4971948;28;20659;-68
2023/06/24 11:59:17;;;;;;;4.57;2.63;;;30.40;99.90;;;;;;4971847;28;20184;-66
2023/06/24 12:01:43;;;;;;;8.65;3.20;;;30.20;99.90;;;;;;4971714;28;20607;-66
2023/06/24 12:04:13;;;;;;;4.32;2.80;;;29.80;99.90;;;;;;4971669;28;20211;-68
2023/06/24 12:06:42;;;;;;;4.45;2.75;;;28.70;99.90;;;;;;4971846;28;20298;-68
2023/06/24 12:09:09;;;;;;;6.30;3.15;;;28.70;99.90;;;;;;4954441;28;20207;-66
2023/06/24 12:11:34;;;;;;;6.32;3.28;;;28.40;99.90;;;;;;4954516;28;20718;-67
2023/06/24 12:14:00;;;;;;;5.20;3.28;;;28.30;99.90;;;;;;4973189;28;20310;-68
2023/06/24 12:16:26;;;;;;;8.02;3.22;;;28.20;99.90;;;;;;4975325;28;20186;-68
2023/06/24 12:18:52;;;;;;;4.75;2.72;;;28.50;99.90;;;;;;4975524;28;20212;-67
2023/06/24 12:21:18;;;;;;;5.93;2.45;;;28.70;99.90;;;;;;4958257;28;20168;-67
2023/06/24 12:23:44;;;;;;;4.10;2.15;;;29.60;99.90;;;;;;4975331;28;20278;-67
2023/06/24 12:26:10;;;;;;;5.82;2.50;;;29.60;99.90;;;;;;4975256;28;20171;-68
2023/06/24 12:28:36;;;;;;;4.20;2.25;;;29.60;99.90;;;;;;4975134;28;20212;-68
2023/06/24 12:31:02;;;;;;;5.57;2.92;;;30.30;99.90;;;;;;4975221;28;20203;-69
2023/06/24 12:33:28;;;;;;;7.72;2.90;;;30.20;99.90;;;;;;4975305;28;20191;-68
2023/06/24 12:35:54;;;;;;;7.68;3.20;;;30.50;99.90;;;;;;4975100;28;20176;-68
2023/06/24 12:38:20;;;;;;;5.40;3.22;;;30.70;99.90;;;;;;4975081;28;20176;-68
2023/06/24 12:40:45;;;;;;;8.00;3.22;;;30.20;99.90;;;;;;4974872;28;20235;-66
2023/06/24 12:43:11;;;;;;;8.57;3.05;;;29.70;99.90;;;;;;4974728;28;20219;-68
2023/06/24 12:45:38;;;;;;;18.50;3.95;;;30.20;99.90;;;;;;4974941;28;20254;-68
2023/06/24 12:48:04;;;;;;;4.10;2.78;;;30.20;99.90;;;;;;4978310;28;20203;-69
2023/06/24 12:50:33;;;;;;;9.00;3.08;;;31.70;99.90;;;;;;4988570;28;20179;-68
2023/06/24 12:52:58;;;;;;;6.53;3.03;;;31.90;99.90;;;;;;4992637;28;20168;-68
2023/06/24 12:55:24;;;;;;;4.95;3.17;;;32.00;99.90;;;;;;4974699;28;20172;-67
2023/06/24 12:57:49;;;;;;;7.68;3.10;;;30.50;99.90;;;;;;4957278;28;20176;-67